createdAt,value
2022-12-29T00:02:02.428Z,161.00
2022-12-29T00:04:29.706Z,131.13
2022-12-29T00:06:57.364Z,136.95
2022-12-29T00:09:24.519Z,152.68
2022-12-29T00:11:52.050Z,139.27
2022-12-29T00:14:38.344Z,134.90
2022-12-29T00:17:05.879Z,143.55
2022-12-29T00:19:51.949Z,172.20
2022-12-29T00:22:38.450Z,125.20
2022-12-29T00:25:25.701Z,145.88
2022-12-29T00:28:11.761Z,148.95
2022-12-29T00:30:58.814Z,145.35
2022-12-29T00:33:53.345Z,179.40
2022-12-29T00:36:34.924Z,193.77
2022-12-29T00:39:26.060Z,222.57
2022-12-29T00:42:11.850Z,206.63
2022-12-29T00:44:42.381Z,202.85
2022-12-29T00:47:10.594Z,199.63
2022-12-29T00:49:38.142Z,212.55
2022-12-29T00:52:07.008Z,192.32
2022-12-29T00:54:39.928Z,194.48
2022-12-29T00:57:08.803Z,195.15
2022-12-29T00:59:41.262Z,172.73
2022-12-29T01:02:09.389Z,163.75
2022-12-29T01:04:37.229Z,178.25
2022-12-29T01:07:05.159Z,172.15
2022-12-29T01:09:51.646Z,187.23
2022-12-29T01:12:39.363Z,163.07
2022-12-29T01:15:09.244Z,162.55
2022-12-29T01:17:36.817Z,171.05
2022-12-29T01:20:04.979Z,172.38
2022-12-29T01:22:32.324Z,162.40
2022-12-29T01:24:59.825Z,168.50
2022-12-29T01:27:27.229Z,165.80
2022-12-29T01:29:54.701Z,181.27
2022-12-29T01:32:24.549Z,162.88
2022-12-29T01:34:51.986Z,178.15
2022-12-29T01:37:19.291Z,153.55
2022-12-29T01:39:47.402Z,154.32
2022-12-29T01:42:20.164Z,156.57
2022-12-29T01:44:50.781Z,136.45
2022-12-29T01:47:33.505Z,133.65
2022-12-29T01:50:08.043Z,138.73
2022-12-29T01:52:39.332Z,153.10
2022-12-29T01:55:09.343Z,142.13
2022-12-29T01:57:41.926Z,135.45
2022-12-29T02:00:13.288Z,130.65
2022-12-29T02:02:48.830Z,105.20
2022-12-29T02:05:52.851Z,124.32
2022-12-29T02:08:23.779Z,131.20
2022-12-29T02:10:51.568Z,96.38
2022-12-29T02:13:25.982Z,96.68
2022-12-29T02:16:15.502Z,89.07
2022-12-29T02:19:02.726Z,133.18
2022-12-29T02:22:01.386Z,111.07
2022-12-29T02:25:23.957Z,132.00
2022-12-29T02:27:54.622Z,133.80
2022-12-29T02:30:36.601Z,128.40
2022-12-29T02:33:21.938Z,142.20
2022-12-29T02:36:23.815Z,132.02
2022-12-29T02:39:09.858Z,100.10
2022-12-29T02:41:57.259Z,106.93
2022-12-29T02:44:41.841Z,90.68
2022-12-29T02:47:27.648Z,107.85
2022-12-29T02:50:05.531Z,124.93
2022-12-29T02:52:44.756Z,118.90
2022-12-29T02:55:12.869Z,112.80
2022-12-29T02:57:40.103Z,110.72
2022-12-29T03:00:09.733Z,115.57
2022-12-29T03:03:18.861Z,114.88
2022-12-29T03:06:04.739Z,114.05
2022-12-29T03:08:53.310Z,103.68
2022-12-29T03:11:39.480Z,98.95
2022-12-29T03:14:55.547Z,77.63
2022-12-29T03:17:34.796Z,98.90
2022-12-29T03:20:08.798Z,95.22
2022-12-29T03:22:44.716Z,76.47
2022-12-29T03:25:27.238Z,135.93
2022-12-29T03:28:05.169Z,92.15
2022-12-29T03:30:37.604Z,85.75
2022-12-29T03:33:10.140Z,76.03
2022-12-29T03:35:42.939Z,73.20
2022-12-29T03:38:34.749Z,80.53
2022-12-29T03:41:07.389Z,78.35
2022-12-29T03:43:35.339Z,68.70
2022-12-29T03:46:02.580Z,78.07
2022-12-29T03:48:30.221Z,78.38
2022-12-29T03:50:57.670Z,87.15
2022-12-29T03:53:25.539Z,88.60
2022-12-29T03:55:52.803Z,81.20
2022-12-29T03:58:20.325Z,91.45
2022-12-29T04:01:10.240Z,68.50
2022-12-29T04:03:39.824Z,85.95
2022-12-29T04:06:08.838Z,82.88
2022-12-29T04:09:02.460Z,59.58
2022-12-29T04:11:34.652Z,55.90
2022-12-29T04:14:04.497Z,51.53
2022-12-29T04:16:36.899Z,52.65
2022-12-29T04:19:08.555Z,46.10
2022-12-29T04:21:37.317Z,50.17
2022-12-29T04:24:07.843Z,53.20
2022-12-29T04:26:40.330Z,50.47
2022-12-29T04:29:23.501Z,52.35
2022-12-29T04:32:06.567Z,51.67
2022-12-29T04:34:38.877Z,57.88
2022-12-29T04:37:06.503Z,52.53
2022-12-29T04:39:35.206Z,54.58
2022-12-29T04:42:03.763Z,48.45
2022-12-29T04:44:31.357Z,56.78
2022-12-29T04:47:18.799Z,53.58
2022-12-29T04:50:13.627Z,50.78
2022-12-29T04:52:44.641Z,81.70
2022-12-29T04:55:15.017Z,78.15
2022-12-29T04:57:42.461Z,99.88
2022-12-29T05:00:12.671Z,75.15
2022-12-29T05:02:40.169Z,81.43
2022-12-29T05:05:08.299Z,90.65
2022-12-29T05:07:39.638Z,80.47
2022-12-29T05:10:08.399Z,85.13
2022-12-29T05:12:37.297Z,92.90
2022-12-29T05:15:07.613Z,91.53
2022-12-29T05:18:19.159Z,109.45
2022-12-29T05:20:47.826Z,124.68
2022-12-29T05:23:15.799Z,106.55
2022-12-29T05:25:46.365Z,102.57
2022-12-29T05:28:18.645Z,88.45
2022-12-29T05:31:00.607Z,98.13
2022-12-29T05:33:28.409Z,97.03
2022-12-29T05:35:56.108Z,157.60
2022-12-29T05:38:24.545Z,160.90
2022-12-29T05:40:52.159Z,184.77
2022-12-29T05:43:39.624Z,150.68
2022-12-29T05:46:30.431Z,125.93
2022-12-29T05:49:18.468Z,109.45
2022-12-29T05:52:42.608Z,135.13
2022-12-29T05:55:10.270Z,123.07
2022-12-29T05:57:39.763Z,134.68
2022-12-29T06:00:12.259Z,149.68
2022-12-29T06:02:43.109Z,106.88
2022-12-29T06:05:10.921Z,121.35
2022-12-29T06:07:40.219Z,88.95
2022-12-29T06:10:08.257Z,89.78
2022-12-29T06:12:45.317Z,76.80
2022-12-29T06:15:12.963Z,77.43
2022-12-29T06:17:42.388Z,97.93
2022-12-29T06:20:11.141Z,87.97
2022-12-29T06:22:39.040Z,83.95
2022-12-29T06:25:07.026Z,76.85
2022-12-29T06:27:35.989Z,73.68
2022-12-29T06:30:04.129Z,72.30
2022-12-29T06:32:31.905Z,103.20
2022-12-29T06:35:06.972Z,106.82
2022-12-29T06:37:38.586Z,103.93
2022-12-29T06:40:06.728Z,108.80
2022-12-29T06:42:50.752Z,125.25
2022-12-29T06:45:35.607Z,132.27
2022-12-29T06:48:03.277Z,157.30
2022-12-29T06:50:30.656Z,155.02
2022-12-29T06:52:58.358Z,224.95
2022-12-29T06:55:25.639Z,208.35
2022-12-29T06:57:56.901Z,208.10
2022-12-29T07:00:25.481Z,139.52
2022-12-29T07:02:53.573Z,161.38
2022-12-29T07:05:21.191Z,201.38
2022-12-29T07:07:48.929Z,186.95
2022-12-29T07:10:16.378Z,174.50
2022-12-29T07:12:44.978Z,164.57
2022-12-29T07:15:12.350Z,151.43
2022-12-29T07:17:40.064Z,177.35
2022-12-29T07:20:08.431Z,181.00
2022-12-29T07:22:36.366Z,163.02
2022-12-29T07:25:04.655Z,179.50
2022-12-29T07:27:32.419Z,157.82
2022-12-29T07:29:59.682Z,179.45
2022-12-29T07:32:27.362Z,181.35
2022-12-29T07:34:54.761Z,168.90
2022-12-29T07:37:22.546Z,179.18
2022-12-29T07:39:49.839Z,179.77
2022-12-29T07:42:17.636Z,183.63
2022-12-29T07:44:51.245Z,179.07
2022-12-29T07:47:34.613Z,181.68
2022-12-29T07:50:02.022Z,171.57
2022-12-29T07:52:29.888Z,150.07
2022-12-29T07:54:57.318Z,145.60
2022-12-29T07:57:29.815Z,89.75
2022-12-29T07:59:59.804Z,76.60
2022-12-29T08:02:27.854Z,89.38
2022-12-29T08:04:55.357Z,72.35
2022-12-29T08:07:22.900Z,79.53
2022-12-29T08:09:50.099Z,93.15
2022-12-29T08:12:17.786Z,106.65
2022-12-29T08:14:45.001Z,106.78
2022-12-29T08:17:12.547Z,107.90
2022-12-29T08:19:40.042Z,132.82
2022-12-29T08:22:07.661Z,186.85
2022-12-29T08:24:34.943Z,184.10
2022-12-29T08:27:10.887Z,157.65
2022-12-29T08:29:43.278Z,152.93
2022-12-29T08:32:11.377Z,136.05
2022-12-29T08:34:38.669Z,92.05
2022-12-29T08:37:06.338Z,100.68
2022-12-29T08:39:33.614Z,85.97
2022-12-29T08:42:01.301Z,97.75
2022-12-29T08:44:28.527Z,108.93
2022-12-29T08:46:56.057Z,129.88
2022-12-29T08:49:23.650Z,166.52
2022-12-29T08:51:51.705Z,127.45
2022-12-29T08:54:18.934Z,102.40
2022-12-29T08:56:46.624Z,91.68
2022-12-29T08:59:16.017Z,85.97
2022-12-29T09:01:45.032Z,111.82
2022-12-29T09:04:15.596Z,122.32
2022-12-29T09:06:44.692Z,128.20
2022-12-29T09:09:12.382Z,109.15
2022-12-29T09:11:40.705Z,114.18
2022-12-29T09:14:08.177Z,93.00
2022-12-29T09:16:37.009Z,98.00
2022-12-29T09:19:05.039Z,155.43
2022-12-29T09:21:32.708Z,162.57
2022-12-29T09:24:00.189Z,114.15
2022-12-29T09:26:27.859Z,139.50
2022-12-29T09:28:55.084Z,105.90
2022-12-29T09:31:23.397Z,92.50
2022-12-29T09:33:50.753Z,75.30
2022-12-29T09:36:18.467Z,73.03
2022-12-29T09:38:45.717Z,67.20
2022-12-29T09:41:25.942Z,84.88
2022-12-29T09:44:21.798Z,104.10
2022-12-29T09:46:52.504Z,82.45
2022-12-29T09:49:30.125Z,60.90
2022-12-29T09:52:14.662Z,76.30
2022-12-29T09:55:02.924Z,24.65
2022-12-29T09:57:49.769Z,45.20
2022-12-29T10:00:21.368Z,72.03
2022-12-29T10:02:59.426Z,72.05
2022-12-29T10:05:36.428Z,62.70
2022-12-29T10:08:42.176Z,63.83
2022-12-29T10:11:34.383Z,95.05
2022-12-29T10:14:39.537Z,91.03
2022-12-29T10:17:41.013Z,64.53
2022-12-29T10:20:32.710Z,53.75
2022-12-29T10:23:21.918Z,81.53
2022-12-29T10:25:50.847Z,84.60
2022-12-29T10:28:25.057Z,23.80
2022-12-29T10:30:56.050Z,32.58
2022-12-29T10:33:31.288Z,70.93
2022-12-29T10:35:59.553Z,69.30
2022-12-29T10:38:29.879Z,52.50
2022-12-29T10:41:19.420Z,32.30
2022-12-29T10:43:52.901Z,38.75
2022-12-29T10:46:24.785Z,36.88
2022-12-29T10:48:52.281Z,163.23
2022-12-29T10:51:31.327Z,154.25
2022-12-29T10:54:10.723Z,366.23
2022-12-29T10:56:46.187Z,97.38
2022-12-29T10:59:26.350Z,118.75
2022-12-29T11:01:59.753Z,177.20
2022-12-29T11:04:55.230Z,56.60
2022-12-29T11:07:26.868Z,55.85
2022-12-29T11:09:55.962Z,171.38
2022-12-29T11:12:30.511Z,135.85
2022-12-29T11:15:17.326Z,183.95
2022-12-29T11:17:52.670Z,202.90
2022-12-29T11:20:31.833Z,262.60
2022-12-29T11:22:59.885Z,200.82
2022-12-29T11:25:27.442Z,122.25
2022-12-29T11:28:02.822Z,65.28
2022-12-29T11:30:32.892Z,93.93
2022-12-29T11:33:04.925Z,114.00
2022-12-29T11:35:40.148Z,70.72
2022-12-29T11:40:44.811Z,54.53
2022-12-29T11:43:28.507Z,60.25
2022-12-29T11:45:57.745Z,45.65
2022-12-29T11:48:28.760Z,75.10
2022-12-29T11:51:02.108Z,50.83
2022-12-29T11:53:35.720Z,51.35
2022-12-29T11:56:18.644Z,46.70
2022-12-29T11:58:46.343Z,79.18
2022-12-29T12:01:29.996Z,51.78
2022-12-29T12:04:05.028Z,26.45
2022-12-29T12:06:35.707Z,27.65
2022-12-29T12:09:28.668Z,27.00
2022-12-29T12:11:57.680Z,24.23
2022-12-29T12:14:55.701Z,33.53
2022-12-29T12:18:11.966Z,45.97
2022-12-29T12:20:53.079Z,50.53
2022-12-29T12:24:05.284Z,54.63
2022-12-29T12:26:42.221Z,78.40
2022-12-29T12:29:26.658Z,77.75
2022-12-29T12:32:03.158Z,280.30
2022-12-29T12:34:37.171Z,150.55
2022-12-29T12:37:16.778Z,81.22
2022-12-29T12:40:13.736Z,116.35
2022-12-29T12:43:10.520Z,83.55
2022-12-29T12:46:03.044Z,81.03
2022-12-29T12:48:55.809Z,78.30
2022-12-29T12:51:41.383Z,51.45
2022-12-29T12:54:20.790Z,55.92
2022-12-29T12:57:14.725Z,63.17
2022-12-29T13:00:09.770Z,111.18
2022-12-29T13:02:52.216Z,69.75
2022-12-29T13:05:41.945Z,50.38
2022-12-29T13:08:27.304Z,52.60
2022-12-29T13:11:33.248Z,57.70
2022-12-29T13:14:26.440Z,91.68
2022-12-29T13:17:07.247Z,93.25
2022-12-29T13:19:42.138Z,98.78
2022-12-29T13:22:27.506Z,101.30
2022-12-29T13:25:21.189Z,96.47
2022-12-29T13:27:56.389Z,105.47
2022-12-29T13:30:47.801Z,100.65
2022-12-29T13:33:28.764Z,103.70
2022-12-29T13:36:10.644Z,87.10
2022-12-29T13:38:45.304Z,80.38
2022-12-29T13:41:28.703Z,91.53
2022-12-29T13:43:58.584Z,92.13
2022-12-29T13:46:34.951Z,96.85
2022-12-29T13:49:15.258Z,102.18
2022-12-29T13:51:50.539Z,104.78
2022-12-29T13:54:28.708Z,92.65
2022-12-29T13:57:21.427Z,90.18
2022-12-29T13:59:57.614Z,97.97
2022-12-29T14:02:46.605Z,108.10
2022-12-29T14:05:34.660Z,82.97
2022-12-29T14:08:07.007Z,91.65
2022-12-29T14:10:49.421Z,105.97
2022-12-29T14:13:23.436Z,158.65
2022-12-29T14:16:00.204Z,104.32
2022-12-29T14:18:34.079Z,129.43
2022-12-29T14:21:01.606Z,76.25
2022-12-29T14:23:45.419Z,81.97
2022-12-29T14:26:33.360Z,98.80
2022-12-29T14:29:26.307Z,84.97
2022-12-29T14:31:54.330Z,72.72
2022-12-29T14:34:21.657Z,92.25
2022-12-29T14:37:03.283Z,67.65
2022-12-29T14:39:39.875Z,61.65
2022-12-29T14:42:10.616Z,55.00
2022-12-29T14:44:58.942Z,69.07
2022-12-29T14:47:34.002Z,80.65
2022-12-29T14:50:44.597Z,101.13
2022-12-29T14:53:49.393Z,84.00
2022-12-29T14:56:19.942Z,81.45
2022-12-29T14:58:58.213Z,62.30
2022-12-29T15:01:27.944Z,95.43
2022-12-29T15:04:00.162Z,108.63
2022-12-29T15:06:31.468Z,95.38
2022-12-29T15:09:12.327Z,106.88
2022-12-29T15:11:39.786Z,81.97
2022-12-29T15:14:34.142Z,83.78
2022-12-29T15:17:02.879Z,48.97
2022-12-29T15:19:30.705Z,71.70
2022-12-29T15:21:58.507Z,78.95
2022-12-29T15:24:26.159Z,66.15
2022-12-29T15:26:57.925Z,126.03
2022-12-29T15:29:38.203Z,152.68
2022-12-29T15:32:19.721Z,99.88
2022-12-29T15:34:53.155Z,103.35
2022-12-29T15:37:27.280Z,68.38
2022-12-29T15:39:56.722Z,94.53
2022-12-29T15:42:26.733Z,118.95
2022-12-29T15:45:09.339Z,118.75
2022-12-29T15:47:38.203Z,119.35
2022-12-29T15:50:10.615Z,119.60
2022-12-29T15:52:41.026Z,90.82
2022-12-29T15:55:25.661Z,93.60
2022-12-29T15:57:58.689Z,102.63
2022-12-29T16:00:32.295Z,93.82
2022-12-29T16:03:02.908Z,105.65
2022-12-29T16:05:39.630Z,112.75
2022-12-29T16:10:54.982Z,129.48
2022-12-29T16:13:40.776Z,121.28
2022-12-29T16:16:22.019Z,124.43
2022-12-29T16:18:57.200Z,140.23
2022-12-29T16:21:30.998Z,145.63
2022-12-29T16:24:03.314Z,145.93
2022-12-29T16:26:31.190Z,148.85
2022-12-29T16:29:00.846Z,155.98
2022-12-29T16:31:49.135Z,170.60
2022-12-29T16:34:25.268Z,180.45
2022-12-29T16:37:02.242Z,205.98
2022-12-29T16:39:37.151Z,233.90
2022-12-29T16:42:45.789Z,231.33
2022-12-29T16:45:20.359Z,218.88
2022-12-29T16:48:06.128Z,211.13
2022-12-29T16:50:39.557Z,185.85
2022-12-29T16:53:19.889Z,195.88
2022-12-29T16:55:49.316Z,202.70
2022-12-29T16:58:32.916Z,223.45
2022-12-29T17:01:04.056Z,242.48
2022-12-29T17:03:40.215Z,252.48
2022-12-29T17:06:14.826Z,271.65
2022-12-29T17:08:44.523Z,276.67
2022-12-29T17:11:58.415Z,282.00
2022-12-29T17:14:39.339Z,327.73
2022-12-29T17:17:17.894Z,299.98
2022-12-29T17:19:54.447Z,286.55
2022-12-29T17:24:57.549Z,587.65
2022-12-29T17:27:27.863Z,477.98
2022-12-29T17:29:59.938Z,528.13
2022-12-29T17:32:27.428Z,401.50
2022-12-29T17:34:55.081Z,454.38
2022-12-29T17:37:29.116Z,346.33
2022-12-29T17:39:56.790Z,437.67
2022-12-29T17:42:24.093Z,322.17
2022-12-29T17:44:51.736Z,310.55
2022-12-29T17:47:18.939Z,335.85
2022-12-29T17:49:46.526Z,230.32
2022-12-29T17:52:15.014Z,166.30
2022-12-29T17:54:53.662Z,187.70
2022-12-29T17:57:21.795Z,179.20
2022-12-29T17:59:49.498Z,187.57
2022-12-29T18:02:32.134Z,182.95
2022-12-29T18:05:00.201Z,238.48
2022-12-29T18:07:35.597Z,254.82
2022-12-29T18:12:39.692Z,381.77
2022-12-29T18:17:40.434Z,359.05
2022-12-29T18:20:08.346Z,392.92
2022-12-29T18:22:35.618Z,377.60
2022-12-29T18:25:03.343Z,403.75
2022-12-29T18:27:30.698Z,392.08
2022-12-29T18:29:58.307Z,389.15
2022-12-29T18:32:25.618Z,392.15
2022-12-29T18:34:53.136Z,380.88
2022-12-29T18:37:20.534Z,427.05
2022-12-29T18:39:48.096Z,834.33
2022-12-29T18:42:18.442Z,814.95
2022-12-29T18:44:46.089Z,560.72
2022-12-29T18:47:13.479Z,615.20
2022-12-29T18:49:41.198Z,608.10
2022-12-29T18:52:13.759Z,595.88
2022-12-29T18:54:41.351Z,541.22
2022-12-29T18:57:08.610Z,552.35
2022-12-29T18:59:36.338Z,521.08
2022-12-29T19:02:03.617Z,496.20
2022-12-29T19:04:31.249Z,581.90
2022-12-29T19:06:59.512Z,646.60
2022-12-29T19:09:27.650Z,690.60
2022-12-29T19:11:54.974Z,665.03
2022-12-29T19:14:22.628Z,549.13
2022-12-29T19:16:50.023Z,555.78
2022-12-29T19:19:17.839Z,472.73
2022-12-29T19:21:45.601Z,456.38
2022-12-29T19:24:13.404Z,500.75
2022-12-29T19:26:41.614Z,536.67
2022-12-29T19:29:15.738Z,599.85
2022-12-29T19:31:43.040Z,615.15
2022-12-29T19:34:14.783Z,572.25
2022-12-29T19:36:43.471Z,611.60
2022-12-29T19:39:11.802Z,521.80
2022-12-29T19:41:39.209Z,618.00
2022-12-29T19:44:08.519Z,639.80
2022-12-29T19:46:35.833Z,596.67
2022-12-29T19:49:03.456Z,480.92
2022-12-29T19:51:31.055Z,481.60
2022-12-29T19:53:58.715Z,570.15
2022-12-29T19:56:26.016Z,538.80
2022-12-29T19:58:53.623Z,662.03
2022-12-29T20:01:23.175Z,570.55
2022-12-29T20:03:51.396Z,456.35
2022-12-29T20:06:19.611Z,431.45
2022-12-29T20:08:47.460Z,413.77
2022-12-29T20:11:17.518Z,400.73
2022-12-29T20:13:45.722Z,410.75
2022-12-29T20:16:15.651Z,391.85
2022-12-29T20:18:43.892Z,417.15
2022-12-29T20:21:20.255Z,412.58
2022-12-29T20:23:51.979Z,398.60
2022-12-29T20:26:28.819Z,425.25
2022-12-29T20:29:01.033Z,382.30
2022-12-29T20:31:37.797Z,388.58
2022-12-29T20:34:06.259Z,396.15
2022-12-29T20:36:36.285Z,411.48
2022-12-29T20:39:07.439Z,431.92
2022-12-29T20:41:35.596Z,438.55
2022-12-29T20:44:05.416Z,413.52
2022-12-29T20:46:39.386Z,440.40
2022-12-29T20:49:11.231Z,460.00
2022-12-29T20:52:05.239Z,433.73
2022-12-29T20:54:26.249Z,446.08
2022-12-29T20:56:53.624Z,406.25
2022-12-29T20:59:29.212Z,403.40
2022-12-29T21:01:58.401Z,441.42
2022-12-29T21:04:26.673Z,453.05
2022-12-29T21:06:54.272Z,458.42
2022-12-29T21:09:23.143Z,494.25
2022-12-29T21:11:50.524Z,494.40
2022-12-29T21:14:18.117Z,506.05
2022-12-29T21:16:45.465Z,553.15
2022-12-29T21:19:13.863Z,641.08
2022-12-29T21:21:41.108Z,653.92
2022-12-29T21:24:08.781Z,689.63
2022-12-29T21:26:36.592Z,649.85
2022-12-29T21:29:04.814Z,644.38
2022-12-29T21:31:36.883Z,643.22
2022-12-29T21:34:05.735Z,684.08
2022-12-29T21:36:34.141Z,679.83
2022-12-29T21:39:03.781Z,663.10
2022-12-29T21:41:31.647Z,649.63
2022-12-29T21:44:18.007Z,656.90
2022-12-29T21:46:47.897Z,619.67
2022-12-29T21:49:16.510Z,556.72
2022-12-29T21:51:54.224Z,528.50
2022-12-29T21:54:43.284Z,549.17
2022-12-29T21:57:16.602Z,539.08
2022-12-29T22:00:07.048Z,588.50
2022-12-29T22:02:55.064Z,575.17
2022-12-29T22:08:27.130Z,487.60
2022-12-29T22:11:13.443Z,440.13
2022-12-29T22:13:40.658Z,485.38
2022-12-29T22:16:11.055Z,486.50
2022-12-29T22:18:38.946Z,452.27
2022-12-29T22:21:08.601Z,468.00
2022-12-29T22:23:38.168Z,445.52
2022-12-29T22:26:08.487Z,405.42
2022-12-29T22:28:40.536Z,385.60
2022-12-29T22:31:27.597Z,391.52
2022-12-29T22:34:01.309Z,393.95
2022-12-29T22:36:29.395Z,381.85
2022-12-29T22:38:56.912Z,357.55
2022-12-29T22:41:24.557Z,481.15
2022-12-29T22:43:51.905Z,448.33
2022-12-29T22:46:20.116Z,544.33
2022-12-29T22:48:47.331Z,464.77
2022-12-29T22:51:15.803Z,562.10
2022-12-29T22:53:42.988Z,529.03
2022-12-29T22:56:12.931Z,515.53
2022-12-29T22:58:44.748Z,538.08
2022-12-29T23:01:17.671Z,542.15
2022-12-29T23:03:45.466Z,503.40
2022-12-29T23:06:16.195Z,500.95
2022-12-29T23:08:48.172Z,469.63
2022-12-29T23:11:18.743Z,473.30
2022-12-29T23:13:46.333Z,469.63
2022-12-29T23:16:15.621Z,515.63
2022-12-29T23:18:44.303Z,507.25
2022-12-29T23:21:11.970Z,469.77
2022-12-29T23:23:54.960Z,464.00
2022-12-29T23:26:42.490Z,449.50
2022-12-29T23:29:13.331Z,460.48
2022-12-29T23:31:41.507Z,460.25
2022-12-29T23:34:10.351Z,451.05
2022-12-29T23:36:38.343Z,460.05
2022-12-29T23:39:06.438Z,479.73
2022-12-29T23:41:34.046Z,460.15
2022-12-29T23:44:01.256Z,492.20
2022-12-29T23:46:30.177Z,512.08
2022-12-29T23:48:57.786Z,746.03
2022-12-29T23:51:25.359Z,567.78
2022-12-29T23:53:52.564Z,596.72
2022-12-29T23:56:23.692Z,495.20
2022-12-29T23:58:51.730Z,479.42
